Schuylkill — WDD9655 — position and weather

sailwx.info

Track history (hours):
 
Tides and Currents Weather Stations Pressure Air Temp Water Temp Dewpoint Dewpoint Depression Visibility Wind Speed Wind Dir Waves Ship Positions

Schuylkill

Owner: Vane Line Bunkering, Philadelphia, PA. More information available from US FCC via Universal Licensing System and Coast Guard Vessel Documentation Center.

Last reported at 2018-Feb-25 11:31 UTC. Time now 2018-Feb-25 11:33 UTC.
Position N 39°43' W 075°30'.

Length 26 m; draft 4.2 m.

Type: Towing. MMSI: 367314490.

Date/timePositionNaut miles runAvg speedWind from/ knotsBaromVisibWave heightAir tempDewpointWater temp
2018-Feb-25 11:31N 39°43' W 075°30'510.0
2018-Feb-25 11:00N 39°39' W 075°33'4 8.7
2018-Feb-25 10:30N 39°35' W 075°33'2 4.4
2018-Feb-25 10:01N 39°33' W 075°36'4 8.0
2018-Feb-25 09:31N 39°33' W 075°41'4 8.7
2018-Feb-25 09:01N 39°32' W 075°46'4 8.9
2018-Feb-25 08:31N 39°32' W 075°52'5 9.3
2018-Feb-25 08:00N 39°29' W 075°57'5 9.1
2018-Feb-25 07:31N 39°26' W 076°01'3 6.9
2018-Feb-25 07:00N 39°23' W 076°05'4 8.4
2018-Feb-25 06:30N 39°21' W 076°09'4 8.1
2018-Feb-25 06:00N 39°18' W 076°13'5 7.8
2018-Feb-25 05:21N 39°13' W 076°15'11 7.5
2018-Feb-25 03:49N 39°03' W 076°22'3 8.1
2018-Feb-25 03:25N 39°00' W 076°23'3 7.4
2018-Feb-25 03:00N 38°57' W 076°24'4 7.4
2018-Feb-25 02:30N 38°54' W 076°25'4 7.4
2018-Feb-25 02:00N 38°50' W 076°26'5 7.5
2018-Feb-25 01:23N 38°45' W 076°27'16 7.5
2018-Feb-24 23:14N 38°29' W 076°26'15 0.4
2018-Feb-23 07:25N 38°44' W 076°28'3 8.0
2018-Feb-23 06:59N 38°47' W 076°27'4 8.3
2018-Feb-23 06:30N 38°51' W 076°26'4 8.3
2018-Feb-23 06:00N 38°55' W 076°25'4 8.2
2018-Feb-23 05:30N 38°59' W 076°23'4 7.8
2018-Feb-23 05:00N 39°03' W 076°22'4 7.2
2018-Feb-23 04:31N 39°06' W 076°20'4 7.0
2018-Feb-23 04:00N 39°10' W 076°19'4 7.5
2018-Feb-23 03:30N 39°12' W 076°16'5 7.4
2018-Feb-23 02:47N 39°17' W 076°13'3 7.5
2018-Feb-23 02:21N 39°20' W 076°11'3 7.9
2018-Feb-23 02:01N 39°22' W 076°08'4 7.9
2018-Feb-23 01:30N 39°24' W 076°04'4 8.2
2018-Feb-23 01:00N 39°27' W 075°60'4 8.4
2018-Feb-23 00:30N 39°30' W 075°56'4 8.3
2018-Feb-23 00:01N 39°32' W 075°52'4 8.6
2018-Feb-22 23:31N 39°32' W 075°46'4 8.9
2018-Feb-22 23:00N 39°33' W 075°40'4 8.8
2018-Feb-22 22:31N 39°34' W 075°35'2 3.3
2018-Feb-22 22:01N 39°35' W 075°35'0 0.1
2018-Feb-22 21:30N 39°35' W 075°36'0 0.0
2018-Feb-22 21:00N 39°35' W 075°36'0 0.0
2018-Feb-22 20:30N 39°35' W 075°36'0 0.0
2018-Feb-22 20:01N 39°35' W 075°36'0 0.0
2018-Feb-22 19:30N 39°35' W 075°36'0 0.0
2018-Feb-22 19:01N 39°35' W 075°36'0 0.0
2018-Feb-22 18:31N 39°35' W 075°36'0 0.0
2018-Feb-22 18:00N 39°35' W 075°36'0 0.0
2018-Feb-22 17:30N 39°35' W 075°36'0 0.0
2018-Feb-22 17:01N 39°35' W 075°36'0 0.0
2018-Feb-22 16:30N 39°35' W 075°36'0 0.0
2018-Feb-22 16:01N 39°35' W 075°36'0 0.0
2018-Feb-22 15:31N 39°35' W 075°36'0 0.0
2018-Feb-22 15:01N 39°35' W 075°36'0 0.0
2018-Feb-22 14:31N 39°35' W 075°36'0 0.1
2018-Feb-22 14:01N 39°35' W 075°35'2 4.6
2018-Feb-22 13:31N 39°34' W 075°33'0 0.9
2018-Feb-22 13:00N 39°35' W 075°33'0 0.0
2018-Feb-22 12:30N 39°35' W 075°33'0 0.0
2018-Feb-22 12:01N 39°35' W 075°33'0 0.0
2018-Feb-22 11:31N 39°35' W 075°33'0 0.1
2018-Feb-22 11:00N 39°35' W 075°33'0 0.1
2018-Feb-22 10:30N 39°35' W 075°33'0 0.1
2018-Feb-22 10:01N 39°35' W 075°33'0 0.2
2018-Feb-22 09:30N 39°35' W 075°33'0 0.0
2018-Feb-22 09:00N 39°35' W 075°33'0 0.0
2018-Feb-22 08:30N 39°35' W 075°33'0 0.0
2018-Feb-22 08:00N 39°35' W 075°33'0 0.0
2018-Feb-22 07:30N 39°35' W 075°33'0 0.0
2018-Feb-22 07:00N 39°35' W 075°33'0 0.1
2018-Feb-22 06:30N 39°35' W 075°33'0 0.0
2018-Feb-22 06:01N 39°35' W 075°33'0 0.2
2018-Feb-22 05:30N 39°35' W 075°33'0 0.2
2018-Feb-22 05:01N 39°35' W 075°33'0 0.1
2018-Feb-22 04:31N 39°35' W 075°33'0 0.0
2018-Feb-22 04:00N 39°35' W 075°33'0 0.1
2018-Feb-22 03:31N 39°35' W 075°33'0 0.0
2018-Feb-22 03:00N 39°35' W 075°33'0 0.0
2018-Feb-22 02:30N 39°35' W 075°33'0 0.0
2018-Feb-22 02:00N 39°35' W 075°33'0 0.0
2018-Feb-22 01:30N 39°35' W 075°33'0 0.0
2018-Feb-22 01:00N 39°35' W 075°33'0 0.0
2018-Feb-22 00:30N 39°35' W 075°33'0 0.0
2018-Feb-22 00:00N 39°35' W 075°33'0 0.0
2018-Feb-21 23:30N 39°35' W 075°33'0 0.1
2018-Feb-21 23:00N 39°35' W 075°33'0 0.1
2018-Feb-21 22:31N 39°35' W 075°33'0 0.2
2018-Feb-21 22:01N 39°35' W 075°33'1 1.3
2018-Feb-21 21:31N 39°35' W 075°33'3 5.7
2018-Feb-21 21:01N 39°38' W 075°34'3 6.2
2018-Feb-21 20:30N 39°41' W 075°32'3 5.8
2018-Feb-21 20:00N 39°43' W 075°30'3 5.6
2018-Feb-21 19:30N 39°46' W 075°29'3 5.6
2018-Feb-21 19:00N 39°48' W 075°26'3 5.9
2018-Feb-21 18:30N 39°49' W 075°23'3 5.9
2018-Feb-21 18:00N 39°51' W 075°20'3 7.1
2018-Feb-21 17:30N 39°51' W 075°15'2 4.3
2018-Feb-21 17:00N 39°52' W 075°13'1 2.8
2018-Feb-21 16:31N 39°54' W 075°12'0 0.1
2018-Feb-21 16:01N 39°54' W 075°12'0 0.1
2018-Feb-21 15:31N 39°54' W 075°12'0 0.0
2018-Feb-21 15:01N 39°54' W 075°12'0 0.0
2018-Feb-21 14:30N 39°54' W 075°12'0 0.0
2018-Feb-21 14:00N 39°54' W 075°12'0 0.1
2018-Feb-21 13:30N 39°54' W 075°12'1 1.2
2018-Feb-21 13:01N 39°54' W 075°12'0 0.0
2018-Feb-21 12:30N 39°54' W 075°12'0 0.0
2018-Feb-21 12:00N 39°54' W 075°12'0 0.0
2018-Feb-21 11:30N 39°54' W 075°12'0 0.0
2018-Feb-21 11:00N 39°54' W 075°12'0 0.0
2018-Feb-21 10:31N 39°54' W 075°12'0 0.0
2018-Feb-21 10:01N 39°54' W 075°12'0 0.0
2018-Feb-21 09:31N 39°54' W 075°12'0 0.0
2018-Feb-21 09:00N 39°54' W 075°12'0 0.0
2018-Feb-21 08:31N 39°54' W 075°12'0 0.0
2018-Feb-21 08:00N 39°54' W 075°12'0 0.0
2018-Feb-21 07:30N 39°54' W 075°12'0 0.0
2018-Feb-21 07:01N 39°54' W 075°12'0 0.0
2018-Feb-21 06:31N 39°54' W 075°12'0 0.0
2018-Feb-21 06:00N 39°54' W 075°12'0 0.0
2018-Feb-21 05:31N 39°54' W 075°12'0 0.0
2018-Feb-21 05:00N 39°54' W 075°12'0 0.0
2018-Feb-21 04:30N 39°54' W 075°12'0 0.0
2018-Feb-21 04:00N 39°54' W 075°12'0 0.0
2018-Feb-21 03:31N 39°54' W 075°12'0 0.0
2018-Feb-21 03:01N 39°54' W 075°12'0 0.0
2018-Feb-21 02:31N 39°54' W 075°12'0 0.0
2018-Feb-21 02:00N 39°54' W 075°12'0 0.0
2018-Feb-21 01:31N 39°54' W 075°12'0 0.0
2018-Feb-21 01:01N 39°54' W 075°12'0 0.0
2018-Feb-21 00:31N 39°54' W 075°12'0 0.2
2018-Feb-21 00:01N 39°53' W 075°12'1 2.9
2018-Feb-20 23:30N 39°53' W 075°10'1 2.9
2018-Feb-20 23:01N 39°54' W 075°08'0 0.3
2018-Feb-20 22:30N 39°54' W 075°08'0 0.0
2018-Feb-20 22:00N 39°54' W 075°08'0 0.0
2018-Feb-20 21:31N 39°54' W 075°08'0 0.0
2018-Feb-20 21:01N 39°54' W 075°08'0 0.0
2018-Feb-20 20:31N 39°54' W 075°08'0 0.0
2018-Feb-20 20:00N 39°54' W 075°08'0 0.0
2018-Feb-20 19:31N 39°54' W 075°08'0 0.0
2018-Feb-20 19:01N 39°54' W 075°08'0 0.0
2018-Feb-20 18:30N 39°54' W 075°08'0 0.0
2018-Feb-20 18:00N 39°54' W 075°08'0 0.0
2018-Feb-20 17:31N 39°54' W 075°08'1 1.3
2018-Feb-20 17:00N 39°53' W 075°09'1 2.2
2018-Feb-20 16:31N 39°53' W 075°10'0 0.1
2018-Feb-20 16:01N 39°53' W 075°10'0 0.0
2018-Feb-20 15:30N 39°53' W 075°10'0 0.0
2018-Feb-20 15:00N 39°53' W 075°10'0 0.0
2018-Feb-20 14:30N 39°53' W 075°10'0 0.0
2018-Feb-20 14:00N 39°53' W 075°10'0 0.0
2018-Feb-20 13:30N 39°53' W 075°10'0 0.1
2018-Feb-20 13:00N 39°53' W 075°10'0 0.3
2018-Feb-20 12:30N 39°53' W 075°10'2 3.2
2018-Feb-20 12:00N 39°54' W 075°12'0 0.0
2018-Feb-20 11:30N 39°54' W 075°12'0 0.0
2018-Feb-20 11:00N 39°54' W 075°12'0 0.0
2018-Feb-20 10:30N 39°54' W 075°12'0 0.0
2018-Feb-20 10:00N 39°54' W 075°12'0 0.0
2018-Feb-20 09:30N 39°54' W 075°12'0 0.0
2018-Feb-20 09:00N 39°54' W 075°12'0 0.0
2018-Feb-20 08:30N 39°54' W 075°12'0 0.0
2018-Feb-20 08:00N 39°54' W 075°12'0 0.0
2018-Feb-20 07:30N 39°54' W 075°12'0 0.0
2018-Feb-20 07:00N 39°54' W 075°12'0 0.0
2018-Feb-20 06:30N 39°54' W 075°12'0 0.0
2018-Feb-20 06:00N 39°54' W 075°12'0 0.0
2018-Feb-20 05:31N 39°54' W 075°12'0 0.0
2018-Feb-20 05:00N 39°54' W 075°12'0 0.2
2018-Feb-20 04:30N 39°54' W 075°12'0 0.5
2018-Feb-20 04:01N 39°54' W 075°12'0 0.7
2018-Feb-20 03:30N 39°54' W 075°12'0 0.0
2018-Feb-20 03:01N 39°54' W 075°12'0 0.0
2018-Feb-20 02:30N 39°54' W 075°12'0 0.0
2018-Feb-20 02:01N 39°54' W 075°12'0 0.0
2018-Feb-20 01:31N 39°54' W 075°12'0 0.0
2018-Feb-20 01:01N 39°54' W 075°12'0 0.0
2018-Feb-20 00:31N 39°54' W 075°12'0 0.0
2018-Feb-20 00:01N 39°54' W 075°12'0 0.0
2018-Feb-19 23:30N 39°54' W 075°12'0 0.0
2018-Feb-19 23:00N 39°54' W 075°12'0 0.0
2018-Feb-19 22:30N 39°54' W 075°12'0 0.0
2018-Feb-19 22:00N 39°54' W 075°12'0 0.0
2018-Feb-19 21:31N 39°54' W 075°12'0 0.0
2018-Feb-19 21:00N 39°54' W 075°12'0 0.0
2018-Feb-19 20:30N 39°54' W 075°12'0 0.1
2018-Feb-19 20:00N 39°53' W 075°12'0 0.1
2018-Feb-19 19:31N 39°54' W 075°12'1 1.3
2018-Feb-19 19:00N 39°54' W 075°12'0 0.0
2018-Feb-19 18:30N 39°54' W 075°12'1 1.3
2018-Feb-19 18:00N 39°54' W 075°12'0 0.0
2018-Feb-19 17:31N 39°54' W 075°12'0 0.0
2018-Feb-19 17:00N 39°54' W 075°12'0 0.0
2018-Feb-19 16:30N 39°54' W 075°12'0 0.0
2018-Feb-19 16:01N 39°54' W 075°12'0 0.0
2018-Feb-19 15:30N 39°54' W 075°12'0 0.0
2018-Feb-19 15:00N 39°54' W 075°12'0 0.0
2018-Feb-19 14:30N 39°54' W 075°12'0 0.0
2018-Feb-19 14:01N 39°54' W 075°12'1 1.1
2018-Feb-19 13:31N 39°54' W 075°12'0 0.1
2018-Feb-19 13:00N 39°54' W 075°12'0 0.2
2018-Feb-19 12:30N 39°54' W 075°12'1 1.1
2018-Feb-19 12:00N 39°54' W 075°12'0 0.0
2018-Feb-19 11:30N 39°54' W 075°12'0 0.0
2018-Feb-19 11:01N 39°54' W 075°12'0 0.0
2018-Feb-19 10:30N 39°54' W 075°12'0 0.0
2018-Feb-19 10:00N 39°54' W 075°12'0 0.0
2018-Feb-19 09:30N 39°54' W 075°12'0 0.0
2018-Feb-19 09:00N 39°54' W 075°12'0 0.0
2018-Feb-19 08:30N 39°54' W 075°12'0 0.0
2018-Feb-19 08:00N 39°54' W 075°12'0 0.0
2018-Feb-19 07:30N 39°54' W 075°12'0 0.0
2018-Feb-19 07:00N 39°54' W 075°12'0 0.0
2018-Feb-19 06:31N 39°54' W 075°12'0 0.0
2018-Feb-19 06:01N 39°54' W 075°12'0 0.0
2018-Feb-19 05:30N 39°54' W 075°12'0 0.0
2018-Feb-19 05:00N 39°54' W 075°12'0 0.0
2018-Feb-19 04:30N 39°54' W 075°12'0 0.0
2018-Feb-19 04:00N 39°54' W 075°12'0 0.0
2018-Feb-19 03:31N 39°54' W 075°12'0 0.0
2018-Feb-19 03:00N 39°54' W 075°12'0 0.0
2018-Feb-19 02:30N 39°54' W 075°12'0 0.0
2018-Feb-19 02:01N 39°54' W 075°12'0 0.0
2018-Feb-19 01:30N 39°54' W 075°12'0 0.0
2018-Feb-19 01:00N 39°54' W 075°12'0 0.0
2018-Feb-19 00:30N 39°54' W 075°12'0 0.0
2018-Feb-19 00:00N 39°54' W 075°12'0 0.0
2018-Feb-18 23:30N 39°54' W 075°12'0 0.0
2018-Feb-18 23:01N 39°54' W 075°12'0 0.0
2018-Feb-18 22:30N 39°54' W 075°12'0 0.0
2018-Feb-18 22:00N 39°54' W 075°12'0 0.0
2018-Feb-18 21:30N 39°54' W 075°12'0 0.0
2018-Feb-18 21:01N 39°54' W 075°12'0 0.0
2018-Feb-18 20:31N 39°54' W 075°12'0 0.0
2018-Feb-18 20:01N 39°54' W 075°12'0 0.0
2018-Feb-18 19:30N 39°54' W 075°12'0 0.0
2018-Feb-18 19:00N 39°54' W 075°12'0 0.0
2018-Feb-18 18:30N 39°54' W 075°12'0 0.0
2018-Feb-18 18:00N 39°54' W 075°12'0 0.0
2018-Feb-18 17:30N 39°54' W 075°12'0 0.0
2018-Feb-18 17:00N 39°54' W 075°12'0 0.0
2018-Feb-18 16:31N 39°54' W 075°12'0 0.0
2018-Feb-18 16:01N 39°54' W 075°12'0 0.0
2018-Feb-18 15:30N 39°54' W 075°12'0 0.0
2018-Feb-18 15:00N 39°54' W 075°12'0 0.0
2018-Feb-18 14:30N 39°54' W 075°12'0 0.0
2018-Feb-18 14:00N 39°54' W 075°12'0 0.0
2018-Feb-18 13:30N 39°54' W 075°12'0 0.0
2018-Feb-18 13:00N 39°54' W 075°12'0 0.0
2018-Feb-18 12:31N 39°54' W 075°12'0 0.0
2018-Feb-18 12:01N 39°54' W 075°12'0 0.0
2018-Feb-18 11:31N 39°54' W 075°12'0 0.0
2018-Feb-18 11:00N 39°54' W 075°12'0 0.0
2018-Feb-18 10:31N 39°54' W 075°12'0 0.0
2018-Feb-18 10:00N 39°54' W 075°12'0 0.0
2018-Feb-18 09:31N 39°54' W 075°12'0 0.0
2018-Feb-18 09:01N 39°54' W 075°12'0 0.0
2018-Feb-18 08:31N 39°54' W 075°12'0 0.0
2018-Feb-18 08:00N 39°54' W 075°12'0 0.0
2018-Feb-18 07:31N 39°54' W 075°12'0 0.0
2018-Feb-18 07:01N 39°54' W 075°12'0 0.0
2018-Feb-18 06:30N 39°54' W 075°12'0 0.0
2018-Feb-18 06:00N 39°54' W 075°12'0 0.0
2018-Feb-18 05:31N 39°54' W 075°12'0 0.0
2018-Feb-18 05:00N 39°54' W 075°12'0 0.0
2018-Feb-18 04:31N 39°54' W 075°12'0 0.0
2018-Feb-18 04:00N 39°54' W 075°12'0 0.0
2018-Feb-18 03:30N 39°54' W 075°12'0 0.0
2018-Feb-18 03:01N 39°54' W 075°12'0 0.0
2018-Feb-18 02:31N 39°54' W 075°12'0 0.0
2018-Feb-18 02:00N 39°54' W 075°12'0 0.0
2018-Feb-18 01:30N 39°54' W 075°12'0 0.0
2018-Feb-18 01:00N 39°54' W 075°12'0 0.0
2018-Feb-18 00:30N 39°54' W 075°12'0 0.0
2018-Feb-18 00:01N 39°54' W 075°12'0 0.1
2018-Feb-17 23:30N 39°54' W 075°12'0 0.0
2018-Feb-17 23:01N 39°54' W 075°12'0 0.0
2018-Feb-17 22:30N 39°54' W 075°12'0 0.0
2018-Feb-17 22:01N 39°54' W 075°12'0 0.0
2018-Feb-17 21:30N 39°54' W 075°12'0 0.1
2018-Feb-17 21:01N 39°54' W 075°12'0 0.0
2018-Feb-17 20:31N 39°54' W 075°12'0 0.0
2018-Feb-17 20:00N 39°54' W 075°12'0 0.0
2018-Feb-17 19:31N 39°54' W 075°12'0 0.0
2018-Feb-17 19:01N 39°54' W 075°12'0 0.0
2018-Feb-17 18:30N 39°54' W 075°12'0 0.0
2018-Feb-17 18:01N 39°54' W 075°12'0 0.0
2018-Feb-17 17:31N 39°54' W 075°12'0 0.0
2018-Feb-17 17:00N 39°54' W 075°11'0 0.0
2018-Feb-17 16:30N 39°54' W 075°11'0 0.0
2018-Feb-17 16:00N 39°54' W 075°12'0 0.0
2018-Feb-17 15:30N 39°54' W 075°12'0 0.0
2018-Feb-17 15:00N 39°54' W 075°12'0 0.0
2018-Feb-17 14:30N 39°54' W 075°11'0 0.0
2018-Feb-17 14:01N 39°54' W 075°12'0 0.0
2018-Feb-17 13:31N 39°54' W 075°12'0 0.0
2018-Feb-17 13:01N 39°54' W 075°11'0 0.0
2018-Feb-17 12:30N 39°54' W 075°11'0 0.0
2018-Feb-17 12:00N 39°54' W 075°12'0 0.0
2018-Feb-16 18:54N 39°54' W 075°12'0 0.0
2018-Feb-16 18:30N 39°54' W 075°12'1 1.1
2018-Feb-16 18:00N 39°54' W 075°12'0 0.6
2018-Feb-16 17:30N 39°54' W 075°12'0 0.6
2018-Feb-16 17:00N 39°53' W 075°12'2 3.1
2018-Feb-16 16:31N 39°52' W 075°13'0 0.0
2018-Feb-16 16:00N 39°52' W 075°13'0 0.0
2018-Feb-16 15:30N 39°52' W 075°13'0 0.0
2018-Feb-16 15:01N 39°52' W 075°13'0 0.0
2018-Feb-16 14:30N 39°52' W 075°13'0 0.2
2018-Feb-16 14:01N 39°52' W 075°13'0 0.2
2018-Feb-16 13:30N 39°52' W 075°13'0 0.0
2018-Feb-16 13:00N 39°52' W 075°13'0 0.0
2018-Feb-16 12:31N 39°52' W 075°13'0 0.0
2018-Feb-16 12:00N 39°52' W 075°13'0 0.1
2018-Feb-16 11:30N 39°52' W 075°13'0 0.0
2018-Feb-16 11:01N 39°52' W 075°13'0 0.0
2018-Feb-16 10:30N 39°52' W 075°13'0 0.0
2018-Feb-16 10:01N 39°52' W 075°13'0 0.0
2018-Feb-16 09:30N 39°52' W 075°13'0 0.0
2018-Feb-16 09:01N 39°52' W 075°13'0 0.0
2018-Feb-16 08:31N 39°52' W 075°13'0 0.1
2018-Feb-16 08:01N 39°52' W 075°13'0 0.2
2018-Feb-16 07:31N 39°52' W 075°13'0 0.1
2018-Feb-16 07:01N 39°52' W 075°13'0 0.0
2018-Feb-16 06:30N 39°52' W 075°13'0 0.1
2018-Feb-16 06:00N 39°52' W 075°13'0 0.0
2018-Feb-16 05:30N 39°52' W 075°13'0 0.1
2018-Feb-16 05:00N 39°52' W 075°13'0 0.0
2018-Feb-16 04:30N 39°52' W 075°13'0 0.0
2018-Feb-16 04:00N 39°52' W 075°13'0 0.1
2018-Feb-16 03:30N 39°52' W 075°13'0 0.0
2018-Feb-16 03:01N 39°52' W 075°13'0 0.0
2018-Feb-16 02:31N 39°52' W 075°13'0 0.2
2018-Feb-16 02:00N 39°52' W 075°13'0 0.1
2018-Feb-16 01:30N 39°52' W 075°13'0 0.0
2018-Feb-15 23:06N 39°52' W 075°13'0 0.1
2018-Feb-15 23:00N 39°52' W 075°13'0 0.0
2018-Feb-15 22:30N 39°52' W 075°13'0 0.0
2018-Feb-15 22:00N 39°52' W 075°13'0 0.0
2018-Feb-15 21:31N 39°52' W 075°13'0 0.0
2018-Feb-15 21:00N 39°52' W 075°13'0 0.1
2018-Feb-15 20:30N 39°52' W 075°13'0 0.2
2018-Feb-15 20:00N 39°52' W 075°13'0 0.1
2018-Feb-15 19:31N 39°52' W 075°13'0 0.0
2018-Feb-15 19:01N 39°52' W 075°13'0 0.1
2018-Feb-15 18:30N 39°52' W 075°13'2 3.4
2018-Feb-15 18:01N 39°54' W 075°12'1 1.2
2018-Feb-15 17:31N 39°54' W 075°12'0 0.0
2018-Feb-15 17:00N 39°54' W 075°12'0 0.1
2018-Feb-15 16:31N 39°54' W 075°12'1 1.1
2018-Feb-15 16:00N 39°54' W 075°12'0 0.0
2018-Feb-15 15:31N 39°54' W 075°12'0 0.0
2018-Feb-15 15:00N 39°54' W 075°12'0 0.0
2018-Feb-15 14:30N 39°54' W 075°12'0 0.0
2018-Feb-15 14:00N 39°54' W 075°12'0 0.0
2018-Feb-15 13:30N 39°54' W 075°12'0 0.0
2018-Feb-15 13:00N 39°54' W 075°12'0 0.0
2018-Feb-15 12:30N 39°54' W 075°12'0 0.0
2018-Feb-15 12:00N 39°54' W 075°12'  
Track history (hours):
 
Tides and Currents Weather Stations Pressure Air Temp Water Temp Dewpoint Dewpoint Depression Visibility Wind Speed Wind Dir Waves Ship Positions

Schuylkill

Owner: Vane Line Bunkering, Philadelphia, PA. More information available from US FCC via Universal Licensing System and Coast Guard Vessel Documentation Center.

Last reported at 2018-Feb-25 11:31 UTC. Time now 2018-Feb-25 11:33 UTC.
Position N 39°43' W 075°30'.

Length 26 m; draft 4.2 m.

Type: Towing. MMSI: 367314490.

Date/timePositionNaut miles runAvg speedWind from/ knotsBaromVisibWave heightAir tempDewpointWater temp
2018-Feb-25 11:31N 39°43' W 075°30'510.0
2018-Feb-25 11:00N 39°39' W 075°33'4 8.7
2018-Feb-25 10:30N 39°35' W 075°33'2 4.4
2018-Feb-25 10:01N 39°33' W 075°36'4 8.0
2018-Feb-25 09:31N 39°33' W 075°41'4 8.7
2018-Feb-25 09:01N 39°32' W 075°46'4 8.9
2018-Feb-25 08:31N 39°32' W 075°52'5 9.3
2018-Feb-25 08:00N 39°29' W 075°57'5 9.1
2018-Feb-25 07:31N 39°26' W 076°01'3 6.9
2018-Feb-25 07:00N 39°23' W 076°05'4 8.4
2018-Feb-25 06:30N 39°21' W 076°09'4 8.1
2018-Feb-25 06:00N 39°18' W 076°13'5 7.8
2018-Feb-25 05:21N 39°13' W 076°15'11 7.5
2018-Feb-25 03:49N 39°03' W 076°22'3 8.1
2018-Feb-25 03:25N 39°00' W 076°23'3 7.4
2018-Feb-25 03:00N 38°57' W 076°24'4 7.4
2018-Feb-25 02:30N 38°54' W 076°25'4 7.4
2018-Feb-25 02:00N 38°50' W 076°26'5 7.5
2018-Feb-25 01:23N 38°45' W 076°27'16 7.5
2018-Feb-24 23:14N 38°29' W 076°26'15 0.4
2018-Feb-23 07:25N 38°44' W 076°28'3 8.0
2018-Feb-23 06:59N 38°47' W 076°27'4 8.3
2018-Feb-23 06:30N 38°51' W 076°26'4 8.3
2018-Feb-23 06:00N 38°55' W 076°25'4 8.2
2018-Feb-23 05:30N 38°59' W 076°23'4 7.8
2018-Feb-23 05:00N 39°03' W 076°22'4 7.2
2018-Feb-23 04:31N 39°06' W 076°20'4 7.0
2018-Feb-23 04:00N 39°10' W 076°19'4 7.5
2018-Feb-23 03:30N 39°12' W 076°16'5 7.4
2018-Feb-23 02:47N 39°17' W 076°13'3 7.5
2018-Feb-23 02:21N 39°20' W 076°11'3 7.9
2018-Feb-23 02:01N 39°22' W 076°08'4 7.9
2018-Feb-23 01:30N 39°24' W 076°04'4 8.2
2018-Feb-23 01:00N 39°27' W 075°60'4 8.4
2018-Feb-23 00:30N 39°30' W 075°56'4 8.3
2018-Feb-23 00:01N 39°32' W 075°52'4 8.6
2018-Feb-22 23:31N 39°32' W 075°46'4 8.9
2018-Feb-22 23:00N 39°33' W 075°40'4 8.8
2018-Feb-22 22:31N 39°34' W 075°35'2 3.3
2018-Feb-22 22:01N 39°35' W 075°35'0 0.1
2018-Feb-22 21:30N 39°35' W 075°36'0 0.0
2018-Feb-22 21:00N 39°35' W 075°36'0 0.0
2018-Feb-22 20:30N 39°35' W 075°36'0 0.0
2018-Feb-22 20:01N 39°35' W 075°36'0 0.0
2018-Feb-22 19:30N 39°35' W 075°36'0 0.0
2018-Feb-22 19:01N 39°35' W 075°36'0 0.0
2018-Feb-22 18:31N 39°35' W 075°36'0 0.0
2018-Feb-22 18:00N 39°35' W 075°36'0 0.0
2018-Feb-22 17:30N 39°35' W 075°36'0 0.0
2018-Feb-22 17:01N 39°35' W 075°36'0 0.0
2018-Feb-22 16:30N 39°35' W 075°36'0 0.0
2018-Feb-22 16:01N 39°35' W 075°36'0 0.0
2018-Feb-22 15:31N 39°35' W 075°36'0 0.0
2018-Feb-22 15:01N 39°35' W 075°36'0 0.0
2018-Feb-22 14:31N 39°35' W 075°36'0 0.1
2018-Feb-22 14:01N 39°35' W 075°35'2 4.6
2018-Feb-22 13:31N 39°34' W 075°33'0 0.9
2018-Feb-22 13:00N 39°35' W 075°33'0 0.0
2018-Feb-22 12:30N 39°35' W 075°33'0 0.0
2018-Feb-22 12:01N 39°35' W 075°33'0 0.0
2018-Feb-22 11:31N 39°35' W 075°33'0 0.1
2018-Feb-22 11:00N 39°35' W 075°33'0 0.1
2018-Feb-22 10:30N 39°35' W 075°33'0 0.1
2018-Feb-22 10:01N 39°35' W 075°33'0 0.2
2018-Feb-22 09:30N 39°35' W 075°33'0 0.0
2018-Feb-22 09:00N 39°35' W 075°33'0 0.0
2018-Feb-22 08:30N 39°35' W 075°33'0 0.0
2018-Feb-22 08:00N 39°35' W 075°33'0 0.0
2018-Feb-22 07:30N 39°35' W 075°33'0 0.0
2018-Feb-22 07:00N 39°35' W 075°33'0 0.1
2018-Feb-22 06:30N 39°35' W 075°33'0 0.0
2018-Feb-22 06:01N 39°35' W 075°33'0 0.2
2018-Feb-22 05:30N 39°35' W 075°33'0 0.2
2018-Feb-22 05:01N 39°35' W 075°33'0 0.1
2018-Feb-22 04:31N 39°35' W 075°33'0 0.0
2018-Feb-22 04:00N 39°35' W 075°33'0 0.1
2018-Feb-22 03:31N 39°35' W 075°33'0 0.0
2018-Feb-22 03:00N 39°35' W 075°33'0 0.0
2018-Feb-22 02:30N 39°35' W 075°33'0 0.0
2018-Feb-22 02:00N 39°35' W 075°33'0 0.0
2018-Feb-22 01:30N 39°35' W 075°33'0 0.0
2018-Feb-22 01:00N 39°35' W 075°33'0 0.0
2018-Feb-22 00:30N 39°35' W 075°33'0 0.0
2018-Feb-22 00:00N 39°35' W 075°33'0 0.0
2018-Feb-21 23:30N 39°35' W 075°33'0 0.1
2018-Feb-21 23:00N 39°35' W 075°33'0 0.1
2018-Feb-21 22:31N 39°35' W 075°33'0 0.2
2018-Feb-21 22:01N 39°35' W 075°33'1 1.3
2018-Feb-21 21:31N 39°35' W 075°33'3 5.7
2018-Feb-21 21:01N 39°38' W 075°34'3 6.2
2018-Feb-21 20:30N 39°41' W 075°32'3 5.8
2018-Feb-21 20:00N 39°43' W 075°30'3 5.6
2018-Feb-21 19:30N 39°46' W 075°29'3 5.6
2018-Feb-21 19:00N 39°48' W 075°26'3 5.9
2018-Feb-21 18:30N 39°49' W 075°23'3 5.9
2018-Feb-21 18:00N 39°51' W 075°20'3 7.1
2018-Feb-21 17:30N 39°51' W 075°15'2 4.3
2018-Feb-21 17:00N 39°52' W 075°13'1 2.8
2018-Feb-21 16:31N 39°54' W 075°12'0 0.1
2018-Feb-21 16:01N 39°54' W 075°12'0 0.1
2018-Feb-21 15:31N 39°54' W 075°12'0 0.0
2018-Feb-21 15:01N 39°54' W 075°12'0 0.0
2018-Feb-21 14:30N 39°54' W 075°12'0 0.0
2018-Feb-21 14:00N 39°54' W 075°12'0 0.1
2018-Feb-21 13:30N 39°54' W 075°12'1 1.2
2018-Feb-21 13:01N 39°54' W 075°12'0 0.0
2018-Feb-21 12:30N 39°54' W 075°12'0 0.0
2018-Feb-21 12:00N 39°54' W 075°12'0 0.0
2018-Feb-21 11:30N 39°54' W 075°12'0 0.0
2018-Feb-21 11:00N 39°54' W 075°12'0 0.0
2018-Feb-21 10:31N 39°54' W 075°12'0 0.0
2018-Feb-21 10:01N 39°54' W 075°12'0 0.0
2018-Feb-21 09:31N 39°54' W 075°12'0 0.0
2018-Feb-21 09:00N 39°54' W 075°12'0 0.0
2018-Feb-21 08:31N 39°54' W 075°12'0 0.0
2018-Feb-21 08:00N 39°54' W 075°12'0 0.0
2018-Feb-21 07:30N 39°54' W 075°12'0 0.0
2018-Feb-21 07:01N 39°54' W 075°12'0 0.0
2018-Feb-21 06:31N 39°54' W 075°12'0 0.0
2018-Feb-21 06:00N 39°54' W 075°12'0 0.0
2018-Feb-21 05:31N 39°54' W 075°12'0 0.0
2018-Feb-21 05:00N 39°54' W 075°12'0 0.0
2018-Feb-21 04:30N 39°54' W 075°12'0 0.0
2018-Feb-21 04:00N 39°54' W 075°12'0 0.0
2018-Feb-21 03:31N 39°54' W 075°12'0 0.0
2018-Feb-21 03:01N 39°54' W 075°12'0 0.0
2018-Feb-21 02:31N 39°54' W 075°12'0 0.0
2018-Feb-21 02:00N 39°54' W 075°12'0 0.0
2018-Feb-21 01:31N 39°54' W 075°12'0 0.0
2018-Feb-21 01:01N 39°54' W 075°12'0 0.0
2018-Feb-21 00:31N 39°54' W 075°12'0 0.2
2018-Feb-21 00:01N 39°53' W 075°12'1 2.9
2018-Feb-20 23:30N 39°53' W 075°10'1 2.9
2018-Feb-20 23:01N 39°54' W 075°08'0 0.3
2018-Feb-20 22:30N 39°54' W 075°08'0 0.0
2018-Feb-20 22:00N 39°54' W 075°08'0 0.0
2018-Feb-20 21:31N 39°54' W 075°08'0 0.0
2018-Feb-20 21:01N 39°54' W 075°08'0 0.0
2018-Feb-20 20:31N 39°54' W 075°08'0 0.0
2018-Feb-20 20:00N 39°54' W 075°08'0 0.0
2018-Feb-20 19:31N 39°54' W 075°08'0 0.0
2018-Feb-20 19:01N 39°54' W 075°08'0 0.0
2018-Feb-20 18:30N 39°54' W 075°08'0 0.0
2018-Feb-20 18:00N 39°54' W 075°08'0 0.0
2018-Feb-20 17:31N 39°54' W 075°08'1 1.3
2018-Feb-20 17:00N 39°53' W 075°09'1 2.2
2018-Feb-20 16:31N 39°53' W 075°10'0 0.1
2018-Feb-20 16:01N 39°53' W 075°10'0 0.0
2018-Feb-20 15:30N 39°53' W 075°10'0 0.0
2018-Feb-20 15:00N 39°53' W 075°10'0 0.0
2018-Feb-20 14:30N 39°53' W 075°10'0 0.0
2018-Feb-20 14:00N 39°53' W 075°10'0 0.0
2018-Feb-20 13:30N 39°53' W 075°10'0 0.1
2018-Feb-20 13:00N 39°53' W 075°10'0 0.3
2018-Feb-20 12:30N 39°53' W 075°10'2 3.2
2018-Feb-20 12:00N 39°54' W 075°12'0 0.0
2018-Feb-20 11:30N 39°54' W 075°12'0 0.0
2018-Feb-20 11:00N 39°54' W 075°12'0 0.0
2018-Feb-20 10:30N 39°54' W 075°12'0 0.0
2018-Feb-20 10:00N 39°54' W 075°12'0 0.0
2018-Feb-20 09:30N 39°54' W 075°12'0 0.0
2018-Feb-20 09:00N 39°54' W 075°12'0 0.0
2018-Feb-20 08:30N 39°54' W 075°12'0 0.0
2018-Feb-20 08:00N 39°54' W 075°12'0 0.0
2018-Feb-20 07:30N 39°54' W 075°12'0 0.0
2018-Feb-20 07:00N 39°54' W 075°12'0 0.0
2018-Feb-20 06:30N 39°54' W 075°12'0 0.0
2018-Feb-20 06:00N 39°54' W 075°12'0 0.0
2018-Feb-20 05:31N 39°54' W 075°12'0 0.0
2018-Feb-20 05:00N 39°54' W 075°12'0 0.2
2018-Feb-20 04:30N 39°54' W 075°12'0 0.5
2018-Feb-20 04:01N 39°54' W 075°12'0 0.7
2018-Feb-20 03:30N 39°54' W 075°12'0 0.0
2018-Feb-20 03:01N 39°54' W 075°12'0 0.0
2018-Feb-20 02:30N 39°54' W 075°12'0 0.0
2018-Feb-20 02:01N 39°54' W 075°12'0 0.0
2018-Feb-20 01:31N 39°54' W 075°12'0 0.0
2018-Feb-20 01:01N 39°54' W 075°12'0 0.0
2018-Feb-20 00:31N 39°54' W 075°12'0 0.0
2018-Feb-20 00:01N 39°54' W 075°12'0 0.0
2018-Feb-19 23:30N 39°54' W 075°12'0 0.0
2018-Feb-19 23:00N 39°54' W 075°12'0 0.0
2018-Feb-19 22:30N 39°54' W 075°12'0 0.0
2018-Feb-19 22:00N 39°54' W 075°12'0 0.0
2018-Feb-19 21:31N 39°54' W 075°12'0 0.0
2018-Feb-19 21:00N 39°54' W 075°12'0 0.0
2018-Feb-19 20:30N 39°54' W 075°12'0 0.1
2018-Feb-19 20:00N 39°53' W 075°12'0 0.1
2018-Feb-19 19:31N 39°54' W 075°12'1 1.3
2018-Feb-19 19:00N 39°54' W 075°12'0 0.0
2018-Feb-19 18:30N 39°54' W 075°12'1 1.3
2018-Feb-19 18:00N 39°54' W 075°12'0 0.0
2018-Feb-19 17:31N 39°54' W 075°12'0 0.0
2018-Feb-19 17:00N 39°54' W 075°12'0 0.0
2018-Feb-19 16:30N 39°54' W 075°12'0 0.0
2018-Feb-19 16:01N 39°54' W 075°12'0 0.0
2018-Feb-19 15:30N 39°54' W 075°12'0 0.0
2018-Feb-19 15:00N 39°54' W 075°12'0 0.0
2018-Feb-19 14:30N 39°54' W 075°12'0 0.0
2018-Feb-19 14:01N 39°54' W 075°12'1 1.1
2018-Feb-19 13:31N 39°54' W 075°12'0 0.1
2018-Feb-19 13:00N 39°54' W 075°12'0 0.2
2018-Feb-19 12:30N 39°54' W 075°12'1 1.1
2018-Feb-19 12:00N 39°54' W 075°12'0 0.0
2018-Feb-19 11:30N 39°54' W 075°12'0 0.0
2018-Feb-19 11:01N 39°54' W 075°12'0 0.0
2018-Feb-19 10:30N 39°54' W 075°12'0 0.0
2018-Feb-19 10:00N 39°54' W 075°12'0 0.0
2018-Feb-19 09:30N 39°54' W 075°12'0 0.0
2018-Feb-19 09:00N 39°54' W 075°12'0 0.0
2018-Feb-19 08:30N 39°54' W 075°12'0 0.0
2018-Feb-19 08:00N 39°54' W 075°12'0 0.0
2018-Feb-19 07:30N 39°54' W 075°12'0 0.0
2018-Feb-19 07:00N 39°54' W 075°12'0 0.0
2018-Feb-19 06:31N 39°54' W 075°12'0 0.0
2018-Feb-19 06:01N 39°54' W 075°12'0 0.0
2018-Feb-19 05:30N 39°54' W 075°12'0 0.0
2018-Feb-19 05:00N 39°54' W 075°12'0 0.0
2018-Feb-19 04:30N 39°54' W 075°12'0 0.0
2018-Feb-19 04:00N 39°54' W 075°12'0 0.0
2018-Feb-19 03:31N 39°54' W 075°12'0 0.0
2018-Feb-19 03:00N 39°54' W 075°12'0 0.0
2018-Feb-19 02:30N 39°54' W 075°12'0 0.0
2018-Feb-19 02:01N 39°54' W 075°12'0 0.0
2018-Feb-19 01:30N 39°54' W 075°12'0 0.0
2018-Feb-19 01:00N 39°54' W 075°12'0 0.0
2018-Feb-19 00:30N 39°54' W 075°12'0 0.0
2018-Feb-19 00:00N 39°54' W 075°12'0 0.0
2018-Feb-18 23:30N 39°54' W 075°12'0 0.0
2018-Feb-18 23:01N 39°54' W 075°12'0 0.0
2018-Feb-18 22:30N 39°54' W 075°12'0 0.0
2018-Feb-18 22:00N 39°54' W 075°12'0 0.0
2018-Feb-18 21:30N 39°54' W 075°12'0 0.0
2018-Feb-18 21:01N 39°54' W 075°12'0 0.0
2018-Feb-18 20:31N 39°54' W 075°12'0 0.0
2018-Feb-18 20:01N 39°54' W 075°12'0 0.0
2018-Feb-18 19:30N 39°54' W 075°12'0 0.0
2018-Feb-18 19:00N 39°54' W 075°12'0 0.0
2018-Feb-18 18:30N 39°54' W 075°12'0 0.0
2018-Feb-18 18:00N 39°54' W 075°12'0 0.0
2018-Feb-18 17:30N 39°54' W 075°12'0 0.0
2018-Feb-18 17:00N 39°54' W 075°12'0 0.0
2018-Feb-18 16:31N 39°54' W 075°12'0 0.0
2018-Feb-18 16:01N 39°54' W 075°12'0 0.0
2018-Feb-18 15:30N 39°54' W 075°12'0 0.0
2018-Feb-18 15:00N 39°54' W 075°12'0 0.0
2018-Feb-18 14:30N 39°54' W 075°12'0 0.0
2018-Feb-18 14:00N 39°54' W 075°12'0 0.0
2018-Feb-18 13:30N 39°54' W 075°12'0 0.0
2018-Feb-18 13:00N 39°54' W 075°12'0 0.0
2018-Feb-18 12:31N 39°54' W 075°12'0 0.0
2018-Feb-18 12:01N 39°54' W 075°12'0 0.0
2018-Feb-18 11:31N 39°54' W 075°12'0 0.0
2018-Feb-18 11:00N 39°54' W 075°12'0 0.0
2018-Feb-18 10:31N 39°54' W 075°12'0 0.0
2018-Feb-18 10:00N 39°54' W 075°12'0 0.0
2018-Feb-18 09:31N 39°54' W 075°12'0 0.0
2018-Feb-18 09:01N 39°54' W 075°12'0 0.0
2018-Feb-18 08:31N 39°54' W 075°12'0 0.0
2018-Feb-18 08:00N 39°54' W 075°12'0 0.0
2018-Feb-18 07:31N 39°54' W 075°12'0 0.0
2018-Feb-18 07:01N 39°54' W 075°12'0 0.0
2018-Feb-18 06:30N 39°54' W 075°12'0 0.0
2018-Feb-18 06:00N 39°54' W 075°12'0 0.0
2018-Feb-18 05:31N 39°54' W 075°12'0 0.0
2018-Feb-18 05:00N 39°54' W 075°12'0 0.0
2018-Feb-18 04:31N 39°54' W 075°12'0 0.0
2018-Feb-18 04:00N 39°54' W 075°12'0 0.0
2018-Feb-18 03:30N 39°54' W 075°12'0 0.0
2018-Feb-18 03:01N 39°54' W 075°12'0 0.0
2018-Feb-18 02:31N 39°54' W 075°12'0 0.0
2018-Feb-18 02:00N 39°54' W 075°12'0 0.0
2018-Feb-18 01:30N 39°54' W 075°12'0 0.0
2018-Feb-18 01:00N 39°54' W 075°12'0 0.0
2018-Feb-18 00:30N 39°54' W 075°12'0 0.0
2018-Feb-18 00:01N 39°54' W 075°12'0 0.1
2018-Feb-17 23:30N 39°54' W 075°12'0 0.0
2018-Feb-17 23:01N 39°54' W 075°12'0 0.0
2018-Feb-17 22:30N 39°54' W 075°12'0 0.0
2018-Feb-17 22:01N 39°54' W 075°12'0 0.0
2018-Feb-17 21:30N 39°54' W 075°12'0 0.1
2018-Feb-17 21:01N 39°54' W 075°12'0 0.0
2018-Feb-17 20:31N 39°54' W 075°12'0 0.0
2018-Feb-17 20:00N 39°54' W 075°12'0 0.0
2018-Feb-17 19:31N 39°54' W 075°12'0 0.0
2018-Feb-17 19:01N 39°54' W 075°12'0 0.0
2018-Feb-17 18:30N 39°54' W 075°12'0 0.0
2018-Feb-17 18:01N 39°54' W 075°12'0 0.0
2018-Feb-17 17:31N 39°54' W 075°12'0 0.0
2018-Feb-17 17:00N 39°54' W 075°11'0 0.0
2018-Feb-17 16:30N 39°54' W 075°11'0 0.0
2018-Feb-17 16:00N 39°54' W 075°12'0 0.0
2018-Feb-17 15:30N 39°54' W 075°12'0 0.0
2018-Feb-17 15:00N 39°54' W 075°12'0 0.0
2018-Feb-17 14:30N 39°54' W 075°11'0 0.0
2018-Feb-17 14:01N 39°54' W 075°12'0 0.0
2018-Feb-17 13:31N 39°54' W 075°12'0 0.0
2018-Feb-17 13:01N 39°54' W 075°11'0 0.0
2018-Feb-17 12:30N 39°54' W 075°11'0 0.0
2018-Feb-17 12:00N 39°54' W 075°12'0 0.0
2018-Feb-16 18:54N 39°54' W 075°12'0 0.0
2018-Feb-16 18:30N 39°54' W 075°12'1 1.1
2018-Feb-16 18:00N 39°54' W 075°12'0 0.6
2018-Feb-16 17:30N 39°54' W 075°12'0 0.6
2018-Feb-16 17:00N 39°53' W 075°12'2 3.1
2018-Feb-16 16:31N 39°52' W 075°13'0 0.0
2018-Feb-16 16:00N 39°52' W 075°13'0 0.0
2018-Feb-16 15:30N 39°52' W 075°13'0 0.0
2018-Feb-16 15:01N 39°52' W 075°13'0 0.0
2018-Feb-16 14:30N 39°52' W 075°13'0 0.2
2018-Feb-16 14:01N 39°52' W 075°13'0 0.2
2018-Feb-16 13:30N 39°52' W 075°13'0 0.0
2018-Feb-16 13:00N 39°52' W 075°13'0 0.0
2018-Feb-16 12:31N 39°52' W 075°13'0 0.0
2018-Feb-16 12:00N 39°52' W 075°13'0 0.1
2018-Feb-16 11:30N 39°52' W 075°13'0 0.0
2018-Feb-16 11:01N 39°52' W 075°13'0 0.0
2018-Feb-16 10:30N 39°52' W 075°13'0 0.0
2018-Feb-16 10:01N 39°52' W 075°13'0 0.0
2018-Feb-16 09:30N 39°52' W 075°13'0 0.0
2018-Feb-16 09:01N 39°52' W 075°13'0 0.0
2018-Feb-16 08:31N 39°52' W 075°13'0 0.1
2018-Feb-16 08:01N 39°52' W 075°13'0 0.2
2018-Feb-16 07:31N 39°52' W 075°13'0 0.1
2018-Feb-16 07:01N 39°52' W 075°13'0 0.0
2018-Feb-16 06:30N 39°52' W 075°13'0 0.1
2018-Feb-16 06:00N 39°52' W 075°13'0 0.0
2018-Feb-16 05:30N 39°52' W 075°13'0 0.1
2018-Feb-16 05:00N 39°52' W 075°13'0 0.0
2018-Feb-16 04:30N 39°52' W 075°13'0 0.0
2018-Feb-16 04:00N 39°52' W 075°13'0 0.1
2018-Feb-16 03:30N 39°52' W 075°13'0 0.0
2018-Feb-16 03:01N 39°52' W 075°13'0 0.0
2018-Feb-16 02:31N 39°52' W 075°13'0 0.2
2018-Feb-16 02:00N 39°52' W 075°13'0 0.1
2018-Feb-16 01:30N 39°52' W 075°13'0 0.0
2018-Feb-15 23:06N 39°52' W 075°13'0 0.1
2018-Feb-15 23:00N 39°52' W 075°13'0 0.0
2018-Feb-15 22:30N 39°52' W 075°13'0 0.0
2018-Feb-15 22:00N 39°52' W 075°13'0 0.0
2018-Feb-15 21:31N 39°52' W 075°13'0 0.0
2018-Feb-15 21:00N 39°52' W 075°13'0 0.1
2018-Feb-15 20:30N 39°52' W 075°13'0 0.2
2018-Feb-15 20:00N 39°52' W 075°13'0 0.1
2018-Feb-15 19:31N 39°52' W 075°13'0 0.0
2018-Feb-15 19:01N 39°52' W 075°13'0 0.1
2018-Feb-15 18:30N 39°52' W 075°13'2 3.4
2018-Feb-15 18:01N 39°54' W 075°12'1 1.2
2018-Feb-15 17:31N 39°54' W 075°12'0 0.0
2018-Feb-15 17:00N 39°54' W 075°12'0 0.1
2018-Feb-15 16:31N 39°54' W 075°12'1 1.1
2018-Feb-15 16:00N 39°54' W 075°12'0 0.0
2018-Feb-15 15:31N 39°54' W 075°12'0 0.0
2018-Feb-15 15:00N 39°54' W 075°12'0 0.0
2018-Feb-15 14:30N 39°54' W 075°12'0 0.0
2018-Feb-15 14:00N 39°54' W 075°12'0 0.0
2018-Feb-15 13:30N 39°54' W 075°12'0 0.0
2018-Feb-15 13:00N 39°54' W 075°12'0 0.0
2018-Feb-15 12:30N 39°54' W 075°12'0 0.0
2018-Feb-15 12:00N 39°54' W 075°12'  

Dump ship's entire track history